Time;durP1;ratioP1;P1;durP2;ratioP2;P2;SDS_P1;SDS_P2;PMS_P1;PMS_P2;Temp;Humidity;BMP_temperature;BMP_pressure;BME280_temperature;BME280_humidity;BME280_pressure;Samples;Min_cycle;Max_cycle;Signal;HPM_P1;HPM_P2
2021/09/05 00:00:16;;;;;;;10.27;7.25;;;;;;;10.10;89.07;91007.50;5001787;28;20050;-86
2021/09/05 00:02:52;;;;;;;12.05;7.72;;;;;;;10.23;90.07;91016.88;4999958;28;20026;-85
2021/09/05 00:05:29;;;;;;;14.80;8.40;;;;;;;10.16;90.24;91018.50;4979984;28;20030;-86
2021/09/05 00:08:06;;;;;;;17.80;8.65;;;;;;;10.23;90.65;91013.50;4965430;28;20026;-86
2021/09/05 00:10:42;;;;;;;14.02;8.45;;;;;;;10.14;90.58;91021.44;4966464;28;20413;-88
2021/09/05 00:13:08;;;;;;;12.60;8.13;;;;;;;10.22;90.72;91019.81;4967597;28;20107;-88
2021/09/05 00:15:42;;;;;;;11.40;7.65;;;;;;;10.22;90.18;91017.22;4965262;28;20053;-87
2021/09/05 00:18:16;;;;;;;12.60;8.05;;;;;;;10.15;89.63;91015.13;4975437;28;20018;-88
2021/09/05 00:20:55;;;;;;;10.48;7.40;;;;;;;10.20;90.09;91009.69;4988506;28;20033;-86
2021/09/05 00:23:29;;;;;;;12.85;8.48;;;;;;;10.13;90.52;91003.50;4997221;28;20475;-86
2021/09/05 00:26:07;;;;;;;13.93;7.97;;;;;;;10.04;91.10;91009.56;4993860;28;20026;-90
2021/09/05 00:28:44;;;;;;;14.65;8.07;;;;;;;10.06;91.21;91012.59;4982821;28;20053;-86
2021/09/05 00:31:19;;;;;;;13.40;7.97;;;;;;;9.98;91.44;91008.25;4980884;28;20026;-85
2021/09/05 00:33:54;;;;;;;12.73;8.00;;;;;;;9.98;91.43;91013.44;4980376;28;20022;-86
2021/09/05 00:36:30;;;;;;;10.48;7.50;;;;;;;10.02;90.95;91008.34;4980085;28;20022;-86
2021/09/05 00:39:06;;;;;;;15.32;7.72;;;;;;;10.01;90.55;91007.59;5004712;28;20466;-86
2021/09/05 00:41:41;;;;;;;15.25;8.13;;;;;;;9.94;90.69;91007.38;4997150;28;20022;-86
2021/09/05 00:44:17;;;;;;;12.25;7.53;;;;;;;9.86;91.08;91000.41;4999583;28;20030;-86
2021/09/05 00:46:51;;;;;;;16.02;8.57;;;;;;;9.88;91.76;90998.22;4999817;28;20026;-86
2021/09/05 00:49:23;;;;;;;10.88;7.70;;;;;;;9.89;91.68;90999.75;5000395;28;20033;-86
2021/09/05 00:51:57;;;;;;;12.57;7.40;;;;;;;9.95;90.75;91003.69;4983679;28;20030;-85
2021/09/05 00:54:31;;;;;;;12.18;6.95;;;;;;;9.91;89.78;91009.84;4983841;28;20026;-86
2021/09/05 00:57:03;;;;;;;11.35;6.95;;;;;;;9.82;89.62;90996.91;5000270;28;20022;-87
2021/09/05 00:59:38;;;;;;;12.25;7.50;;;;;;;9.98;89.76;91010.09;4998983;28;20065;-85
2021/09/05 01:02:15;;;;;;;13.27;7.53;;;;;;;9.84;91.26;91010.38;4965088;28;20049;-86
2021/09/05 01:04:52;;;;;;;13.43;7.57;;;;;;;9.89;90.36;91010.16;4983546;28;20053;-86
2021/09/05 01:07:30;;;;;;;15.13;7.70;;;;;;;9.75;89.72;91007.84;4979947;28;20033;-87
2021/09/05 01:10:08;;;;;;;11.45;7.95;;;;;;;9.77;90.08;91017.94;4979877;28;20411;-85
2021/09/05 01:12:36;;;;;;;10.23;7.07;;;;;;;9.69;89.42;91011.72;4964989;28;20105;-85
2021/09/05 01:15:17;;;;;;;11.43;7.22;;;;;;;9.57;89.81;91015.03;4963865;28;20023;-86
2021/09/05 01:17:50;;;;;;;13.27;7.63;;;;;;;9.75;90.39;91022.69;4955496;28;20050;-86
2021/09/05 01:20:29;;;;;;;13.10;7.50;;;;;;;9.65;90.74;91013.44;4997651;28;20026;-86
2021/09/05 01:23:10;;;;;;;13.05;8.27;;;;;;;9.68;90.77;91020.63;4998546;28;20061;-86
2021/09/05 01:25:43;;;;;;;12.40;7.55;;;;;;;9.57;90.61;91015.03;4981689;28;20034;-85
2021/09/05 01:28:20;;;;;;;11.95;8.00;;;;;;;9.57;91.49;91022.06;4997847;28;20026;-86
2021/09/05 01:30:56;;;;;;;15.00;8.02;;;;;;;9.55;91.75;91022.41;4982112;28;20375;-85
2021/09/05 01:33:33;;;;;;;17.58;7.90;;;;;;;9.58;91.86;91021.75;4981947;28;20030;-86
2021/09/05 01:36:11;;;;;;;12.98;8.10;;;;;;;9.57;91.63;91028.03;4987562;28;20026;-86
2021/09/05 01:38:44;;;;;;;12.45;7.43;;;;;;;9.54;91.45;91031.28;4998188;28;20022;-85
2021/09/05 01:41:22;;;;;;;15.18;8.38;;;;;;;9.54;92.19;91031.28;4970266;28;20030;-85
2021/09/05 01:44:00;;;;;;;13.95;7.88;;;;;;;9.69;91.74;91029.19;4978675;28;20069;-86
2021/09/05 01:46:33;;;;;;;12.05;7.43;;;;;;;9.58;91.77;91029.56;4963592;28;20036;-86
2021/09/05 01:49:12;;;;;;;12.43;7.97;;;;;;;9.57;91.95;91033.22;4963385;28;20068;-86
2021/09/05 01:51:45;;;;;;;11.68;7.82;;;;;;;9.53;92.13;91042.00;4978826;28;20029;-86
2021/09/05 01:54:21;;;;;;;13.85;7.90;;;;;;;9.55;92.40;91035.41;4978806;28;20030;-86
2021/09/05 01:56:58;;;;;;;12.18;6.82;;;;;;;9.66;92.25;91040.22;4994856;28;20127;-85
2021/09/05 01:59:36;;;;;;;13.23;7.90;;;;;;;9.68;91.93;91035.44;4986495;28;20117;-86
2021/09/05 02:02:14;;;;;;;11.30;7.53;;;;;;;9.60;92.25;91039.66;4998045;28;20025;-86
2021/09/05 02:04:48;;;;;;;12.68;8.00;;;;;;;9.63;91.99;91040.84;4997975;28;20030;-86
2021/09/05 02:07:31;;;;;;;14.40;8.20;;;;;;;9.51;92.46;91031.91;4997963;28;20022;-87
2021/09/05 02:10:07;;;;;;;12.70;7.50;;;;;;;9.48;92.22;91037.75;4998254;28;20026;-86
2021/09/05 02:12:42;;;;;;;11.13;7.13;;;;;;;9.48;92.09;91031.78;4998829;28;20018;-86
2021/09/05 02:15:14;;;;;;;14.65;7.70;;;;;;;9.45;92.00;91033.19;4979211;28;20034;-86
2021/09/05 02:17:51;;;;;;;11.88;7.55;;;;;;;9.53;91.95;91032.34;4979954;28;20018;-86
2021/09/05 02:20:29;;;;;;;11.13;7.45;;;;;;;9.52;92.23;91035.28;4979769;28;20030;-86
2021/09/05 02:23:11;;;;;;;12.88;8.05;;;;;;;9.55;92.34;91038.00;4971560;28;20017;-86
2021/09/05 02:25:44;;;;;;;14.90;8.20;;;;;;;9.57;92.24;91033.22;5017291;28;20022;-89
2021/09/05 02:28:21;;;;;;;17.15;8.13;;;;;;;9.51;92.28;91029.31;5021346;28;20018;-89
2021/09/05 02:30:57;;;;;;;13.27;7.75;;;;;;;9.40;93.06;91028.19;5016679;28;20029;-85
2021/09/05 02:33:35;;;;;;;13.52;8.27;;;;;;;9.39;93.34;91034.44;5009463;28;20029;-86
2021/09/05 02:36:10;;;;;;;14.65;7.70;;;;;;;9.41;93.27;91029.69;4996220;28;20030;-86
2021/09/05 02:38:48;;;;;;;11.35;7.25;;;;;;;9.36;92.33;91031.72;4978824;28;20017;-86
2021/09/05 02:41:27;;;;;;;14.57;7.07;;;;;;;9.29;92.55;91032.22;4996311;28;20037;-86
2021/09/05 02:44:05;;;;;;;12.35;7.50;;;;;;;9.23;92.80;91038.69;4996566;28;20029;-86
2021/09/05 02:46:44;;;;;;;12.77;7.50;;;;;;;9.24;93.07;91032.41;4977526;28;20048;-85
2021/09/05 02:49:18;;;;;;;12.27;7.00;;;;;;;9.21;92.65;91033.81;4976542;28;20034;-85
2021/09/05 02:51:45;;;;;;;11.60;7.03;;;;;;;9.20;92.29;91029.69;4992875;28;20030;-85
2021/09/05 02:54:21;;;;;;;16.35;7.43;;;;;;;9.21;92.78;91033.03;4992783;28;20088;-86
2021/09/05 02:56:58;;;;;;;12.98;7.10;;;;;;;9.25;92.69;91026.13;4992846;28;20486;-86
2021/09/05 02:59:31;;;;;;;9.52;7.18;;;;;;;9.24;93.00;91032.41;4961706;28;20109;-86
2021/09/05 03:02:05;;;;;;;11.43;7.32;;;;;;;9.21;92.87;91038.25;4976805;28;20034;-86
2021/09/05 03:04:37;;;;;;;14.05;7.68;;;;;;;9.20;92.76;91034.88;4960550;28;20038;-85
2021/09/05 03:07:17;;;;;;;12.95;7.30;;;;;;;9.31;91.43;91030.84;4990364;28;20075;-86
2021/09/05 03:09:46;;;;;;;13.18;7.55;;;;;;;9.24;92.05;91033.19;4995008;28;20061;-86
2021/09/05 03:12:23;;;;;;;10.98;7.32;;;;;;;9.16;92.12;91035.84;4996078;28;20030;-85
2021/09/05 03:15:01;;;;;;;11.27;6.88;;;;;;;9.12;91.63;91034.94;4980118;28;20025;-85
2021/09/05 03:17:34;;;;;;;13.50;8.13;;;;;;;9.22;92.87;91034.56;4996055;28;20265;-85
2021/09/05 03:20:12;;;;;;;12.02;7.70;;;;;;;9.30;91.70;91025.97;4995356;28;20402;-85
2021/09/05 03:22:46;;;;;;;15.38;8.65;;;;;;;9.24;92.97;91017.56;4995483;28;20049;-84
2021/09/05 03:25:21;;;;;;;14.75;8.30;;;;;;;9.24;93.15;91020.16;4996073;28;20414;-85
2021/09/05 03:27:50;;;;;;;14.32;8.07;;;;;;;9.35;93.17;91030.97;4995292;28;20030;-86
2021/09/05 03:30:26;;;;;;;14.93;8.45;;;;;;;9.32;94.12;91027.16;4992046;28;20031;-86
2021/09/05 03:32:53;;;;;;;13.05;8.10;;;;;;;9.24;93.95;91032.41;4995566;28;20401;-85
2021/09/05 03:35:26;;;;;;;14.77;8.60;;;;;;;9.23;94.30;91020.50;4992022;28;20037;-86
2021/09/05 03:37:59;;;;;;;16.30;7.82;;;;;;;9.36;93.41;91029.13;4975614;28;20022;-86
2021/09/05 03:40:33;;;;;;;13.85;7.63;;;;;;;9.32;92.98;91029.00;4992644;28;20026;-86
2021/09/05 03:43:11;;;;;;;12.75;7.63;;;;;;;9.26;93.36;91035.47;4976879;28;20030;-86
2021/09/05 03:45:47;;;;;;;14.73;8.30;;;;;;;9.33;93.95;91030.53;4961175;28;20023;-86
2021/09/05 03:48:26;;;;;;;14.48;7.85;;;;;;;9.21;92.99;91033.81;4986029;28;20034;-86
2021/09/05 03:51:02;;;;;;;13.55;7.85;;;;;;;9.27;93.18;91039.59;4963040;28;20026;-86
2021/09/05 03:53:35;;;;;;;11.18;7.22;;;;;;;9.27;93.66;91029.94;4966106;28;20079;-86
2021/09/05 03:56:11;;;;;;;14.30;8.60;;;;;;;9.21;94.58;91039.00;4981864;28;20061;-85
2021/09/05 03:58:48;;;;;;;12.48;7.88;;;;;;;9.24;94.31;91038.38;4984398;28;20026;-87
2021/09/05 04:01:26;;;;;;;15.18;8.80;;;;;;;9.23;94.00;91036.84;4967664;28;20026;-85
2021/09/05 04:03:56;;;;;;;11.23;7.22;;;;;;;9.20;93.41;91044.53;4967639;28;20018;-85
2021/09/05 04:06:32;;;;;;;12.15;7.32;;;;;;;9.09;92.48;91042.28;4967314;28;20486;-86
2021/09/05 04:09:10;;;;;;;12.35;7.97;;;;;;;9.12;92.53;91045.31;4968068;28;20128;-86
2021/09/05 04:11:50;;;;;;;11.38;7.88;;;;;;;9.12;93.28;91045.31;4968596;28;20503;-87
2021/09/05 04:14:26;;;;;;;12.98;8.52;;;;;;;9.10;92.72;91049.00;4984673;28;20030;-86
2021/09/05 04:17:07;;;;;;;15.02;7.95;;;;;;;9.04;92.86;91047.66;4983356;28;20030;-86
2021/09/05 04:19:42;;;;;;;12.65;8.60;;;;;;;9.07;93.62;91048.88;4987146;28;20022;-89
2021/09/05 04:22:16;;;;;;;12.25;7.80;;;;;;;9.05;93.28;91046.59;4983137;28;20041;-87
2021/09/05 04:24:58;;;;;;;12.95;7.82;;;;;;;9.01;92.35;91045.72;4984981;28;20113;-87
2021/09/05 04:27:32;;;;;;;13.25;7.72;;;;;;;8.94;92.34;91052.47;4991640;23;20111;-91
2021/09/05 04:30:05;;;;;;;13.70;7.35;;;;;;;9.05;91.69;91045.84;4981939;28;20486;-91
2021/09/05 04:32:41;;;;;;;15.13;8.13;;;;;;;9.00;91.64;91046.78;4981862;28;20037;-91
2021/09/05 04:35:14;;;;;;;15.50;8.00;;;;;;;9.02;92.55;91054.28;4998117;28;20026;-92
2021/09/05 04:37:48;;;;;;;15.55;8.57;;;;;;;8.96;92.76;91050.31;4964478;28;20109;-92
2021/09/05 04:40:19;;;;;;;10.93;7.28;;;;;;;8.91;93.15;91051.28;4962664;28;20486;-91
2021/09/05 04:42:54;;;;;;;11.18;7.55;;;;;;;8.98;92.53;91059.34;4962835;28;20026;-92
2021/09/05 04:45:30;;;;;;;10.60;7.40;;;;;;;8.92;92.44;91063.19;4960511;28;20058;-91
2021/09/05 04:48:04;;;;;;;12.27;8.27;;;;;;;8.89;92.80;91063.81;4943041;28;20114;-90
2021/09/05 04:50:41;;;;;;;12.38;7.03;;;;;;;8.82;92.95;91061.69;4943335;28;20026;-91
2021/09/05 04:53:14;;;;;;;10.82;7.32;;;;;;;8.81;93.43;91067.22;4943468;28;20581;-92
2021/09/05 04:55:47;;;;;;;11.65;7.25;;;;;;;8.77;92.98;91061.88;4943024;28;20031;-92
2021/09/05 04:58:21;;;;;;;11.98;8.02;;;;;;;8.79;92.12;91064.91;4943403;28;20019;-91
2021/09/05 05:00:55;;;;;;;12.73;8.07;;;;;;;8.77;92.95;91061.88;4948775;28;20018;-92
2021/09/05 05:03:24;;;;;;;11.48;7.60;;;;;;;8.74;93.71;91072.91;4946612;28;20558;-91
2021/09/05 05:06:05;;;;;;;11.38;7.43;;;;;;;8.94;93.41;91070.66;4958526;28;20031;-92
2021/09/05 05:08:40;;;;;;;10.02;7.25;;;;;;;8.96;92.89;91074.47;4942806;28;20102;-91
2021/09/05 05:11:16;;;;;;;13.85;8.30;;;;;;;8.93;93.35;91075.09;4942492;28;20054;-92
2021/09/05 05:13:48;;;;;;;10.43;6.68;;;;;;;8.99;93.71;91081.66;4946171;28;20030;-92
2021/09/05 05:16:22;;;;;;;12.80;6.63;;;;;;;8.94;93.97;91087.03;4958871;28;20483;-91
2021/09/05 05:18:55;;;;;;;11.75;6.90;;;;;;;8.89;93.84;91089.78;4956733;28;20483;-91
2021/09/05 05:21:26;;;;;;;13.15;7.65;;;;;;;8.87;93.89;91081.56;4942703;28;20540;-92
2021/09/05 05:24:04;;;;;;;12.48;7.13;;;;;;;8.89;93.70;91089.78;4978378;28;20023;-90
2021/09/05 05:26:44;;;;;;;12.85;7.25;;;;;;;8.96;93.63;91087.47;4961906;28;20069;-92
2021/09/05 05:29:16;;;;;;;12.35;7.20;;;;;;;8.98;93.48;91087.94;4961915;28;20026;-92
2021/09/05 05:31:52;;;;;;;10.45;7.03;;;;;;;8.99;93.45;91089.44;4946098;28;20026;-92
2021/09/05 05:34:31;;;;;;;11.55;7.22;;;;;;;9.02;93.06;91094.03;4961876;28;20026;-92
2021/09/05 05:37:03;;;;;;;12.77;7.03;;;;;;;9.06;93.10;91094.16;4946419;28;20022;-92
2021/09/05 05:39:37;;;;;;;12.40;7.72;;;;;;;9.08;93.32;91100.56;4945519;28;20027;-91
2021/09/05 05:42:10;;;;;;;10.93;7.38;;;;;;;9.06;93.50;91097.50;4960800;28;20137;-92
2021/09/05 05:44:40;;;;;;;13.02;7.18;;;;;;;9.17;94.30;91099.75;4961730;28;20053;-92
2021/09/05 05:47:14;;;;;;;13.32;8.15;;;;;;;9.22;93.65;91091.75;4961404;28;20549;-92
2021/09/05 05:49:49;;;;;;;12.73;7.95;;;;;;;9.28;93.60;91100.91;4961164;28;20022;-92
2021/09/05 05:52:25;;;;;;;11.27;7.00;;;;;;;9.31;92.95;91100.28;4946090;28;20121;-91
2021/09/05 05:55:05;;;;;;;9.60;6.82;;;;;;;9.37;92.74;91098.28;4961810;28;20026;-91
2021/09/05 05:57:49;;;;;;;11.07;7.20;;;;;;;9.47;92.43;91101.28;4962105;28;20033;-92
2021/09/05 06:00:31;;;;;;;10.10;7.22;;;;;;;9.54;91.93;91096.34;4961995;28;20022;-92
2021/09/05 06:03:05;;;;;;;10.82;7.63;;;;;;;9.71;91.84;91108.44;4962455;28;20038;-91
2021/09/05 06:05:46;;;;;;;10.98;7.38;;;;;;;9.78;92.41;91089.72;4945393;28;20040;-92
2021/09/05 06:08:20;;;;;;;14.40;7.80;;;;;;;9.80;93.07;91100.59;4961750;28;20031;-91
2021/09/05 06:10:59;;;;;;;13.27;8.20;;;;;;;9.90;93.51;91099.44;4960770;28;20056;-91
2021/09/05 06:13:37;;;;;;;14.40;9.05;;;;;;;10.14;93.81;91104.75;4950068;28;20438;-91
2021/09/05 06:16:13;;;;;;;11.57;8.13;;;;;;;10.23;93.29;91104.66;4942246;28;20613;-91
2021/09/05 06:18:49;;;;;;;12.32;7.88;;;;;;;10.15;92.94;91095.09;4933739;28;20080;-92
2021/09/05 06:21:26;;;;;;;15.68;8.15;;;;;;;10.17;92.83;91098.13;4960781;28;20030;-92
2021/09/05 06:24:03;;;;;;;11.90;8.35;;;;;;;10.31;92.52;91109.06;4960895;28;20026;-91
2021/09/05 06:26:39;;;;;;;12.93;8.30;;;;;;;10.40;92.54;91101.94;4957348;28;20034;-91
2021/09/05 06:29:13;;;;;;;11.95;7.68;;;;;;;10.44;92.36;91109.88;4926577;28;20479;-91
2021/09/05 06:31:46;;;;;;;13.05;8.18;;;;;;;10.59;92.28;91111.09;4925059;28;20038;-92
2021/09/05 06:34:26;;;;;;;14.20;8.27;;;;;;;10.63;92.27;91110.13;4928162;28;20125;-91
2021/09/05 06:37:07;;;;;;;11.48;8.02;;;;;;;10.81;92.14;91109.94;4948805;28;20050;-92
2021/09/05 06:39:41;;;;;;;12.10;7.88;;;;;;;10.76;92.70;91108.31;4938475;28;20106;-91
2021/09/05 06:42:15;;;;;;;11.27;7.80;;;;;;;10.79;92.80;91118.09;4960791;28;20018;-92
2021/09/05 06:44:50;;;;;;;16.77;8.35;;;;;;;10.91;92.89;91110.28;4960624;28;20034;-91
2021/09/05 06:47:31;;;;;;;14.45;8.20;;;;;;;11.11;92.73;91118.34;4958421;28;20030;-91
2021/09/05 06:50:03;;;;;;;13.07;8.43;;;;;;;11.17;92.60;91117.81;4960565;28;20034;-92
2021/09/05 06:52:34;;;;;;;13.45;9.00;;;;;;;11.21;92.90;91117.91;4944710;28;20030;-92
2021/09/05 06:55:04;;;;;;;15.07;8.70;;;;;;;11.25;92.99;91116.16;4943754;28;20026;-92
2021/09/05 06:57:31;;;;;;;14.25;8.90;;;;;;;11.36;93.21;91114.63;4934030;28;20031;-91
2021/09/05 07:00:06;;;;;;;11.95;8.10;;;;;;;11.43;92.66;91114.09;4959741;28;20022;-92
2021/09/05 07:02:39;;;;;;;14.00;9.00;;;;;;;11.65;92.29;91115.47;4944642;28;20026;-91
2021/09/05 07:05:11;;;;;;;14.30;9.10;;;;;;;11.77;92.89;91125.91;4947268;28;20107;-91
2021/09/05 07:07:43;;;;;;;13.00;8.38;;;;;;;11.84;92.84;91123.53;4975624;28;20479;-91
2021/09/05 07:10:15;;;;;;;13.80;8.48;;;;;;;11.92;92.86;91129.72;4943525;28;20034;-91
2021/09/05 07:12:49;;;;;;;16.65;9.07;;;;;;;11.98;92.69;91125.78;4959153;28;20038;-92
2021/09/05 07:15:20;;;;;;;12.45;8.68;;;;;;;12.09;92.65;91115.63;4944116;28;20109;-91
2021/09/05 07:17:58;;;;;;;11.82;8.45;;;;;;;12.22;92.22;91122.31;4943904;28;20426;-91
2021/09/05 07:20:28;;;;;;;12.15;8.30;;;;;;;12.30;91.58;91123.31;4960383;28;20030;-92
2021/09/05 07:23:04;;;;;;;14.27;8.63;;;;;;;12.43;91.13;91127.34;4940192;28;20026;-91
2021/09/05 07:25:39;;;;;;;16.67;9.13;;;;;;;12.51;91.22;91121.25;4939832;28;20026;-92
2021/09/05 07:28:10;;;;;;;13.93;8.70;;;;;;;12.62;90.70;91119.66;4955908;28;20038;-91
2021/09/05 07:30:38;;;;;;;14.45;9.32;;;;;;;12.76;90.65;91124.50;4959581;28;20234;-91
2021/09/05 07:33:14;;;;;;;17.33;9.30;;;;;;;12.95;90.96;91123.81;4943652;28;20502;-90
2021/09/05 07:35:47;;;;;;;17.17;10.93;;;;;;;13.16;93.75;91120.97;4959888;28;20035;-92
2021/09/05 07:38:19;;;;;;;19.45;11.65;;;;;;;13.24;91.69;91120.06;4944089;28;20022;-91
2021/09/05 07:40:52;;;;;;;17.73;11.15;;;;;;;13.44;91.30;91122.75;4944124;28;20030;-91
2021/09/05 07:43:21;;;;;;;14.30;9.75;;;;;;;13.57;90.16;91124.19;4944336;28;20031;-91
2021/09/05 07:45:56;;;;;;;15.88;10.98;;;;;;;13.77;89.30;91122.34;4944090;28;20026;-92
2021/09/05 07:48:24;;;;;;;17.02;10.80;;;;;;;13.98;90.93;91129.91;4943877;28;20018;-92
2021/09/05 07:50:56;;;;;;;18.42;11.30;;;;;;;14.09;89.64;91129.00;4959560;28;20030;-91
2021/09/05 07:53:24;;;;;;;18.55;10.98;;;;;;;14.23;89.81;91133.78;4944142;28;20022;-91
2021/09/05 07:55:52;;;;;;;17.02;10.63;;;;;;;14.41;87.96;91131.50;4958993;28;20030;-91
2021/09/05 07:58:25;;;;;;;17.38;9.88;;;;;;;14.49;85.06;91129.81;4943242;28;20034;-92
2021/09/05 08:00:56;;;;;;;15.68;10.35;;;;;;;14.61;84.69;91129.69;4959397;28;20033;-92
2021/09/05 08:03:24;;;;;;;16.67;10.38;;;;;;;14.71;85.03;91128.34;4939280;28;20562;-91
2021/09/05 08:05:59;;;;;;;17.85;10.02;;;;;;;14.88;85.97;91130.53;4924472;28;20038;-92
2021/09/05 08:08:30;;;;;;;21.08;10.68;;;;;;;15.05;84.41;91134.56;4924678;28;20027;-92
2021/09/05 08:10:58;;;;;;;16.52;10.43;;;;;;;15.21;86.12;91143.09;4924196;28;20030;-91
2021/09/05 08:13:32;;;;;;;17.88;11.13;;;;;;;15.37;88.89;91142.19;4940394;28;20042;-91
2021/09/05 08:16:05;;;;;;;13.20;9.45;;;;;;;15.45;86.18;91141.22;4935112;28;20030;-92
2021/09/05 08:18:36;;;;;;;13.90;9.32;;;;;;;15.65;81.24;91140.00;4959560;28;20027;-91
2021/09/05 08:21:08;;;;;;;13.68;9.10;;;;;;;15.88;81.74;91142.63;4959129;28;20057;-92
2021/09/05 08:23:43;;;;;;;16.40;9.75;;;;;;;15.99;79.04;91148.03;4959293;28;20030;-92
2021/09/05 08:26:14;;;;;;;13.85;9.23;;;;;;;16.13;79.70;91148.22;4944121;28;20108;-91
2021/09/05 08:28:40;;;;;;;13.48;9.23;;;;;;;16.26;78.72;91146.13;4962065;28;20019;-92
2021/09/05 08:31:06;;;;;;;16.10;10.32;;;;;;;16.36;80.22;91152.63;4933348;28;20058;-92
2021/09/05 08:33:32;;;;;;;15.65;9.35;;;;;;;16.41;80.81;91144.44;4951566;28;20035;-93
2021/09/05 08:36:03;;;;;;;14.15;9.82;;;;;;;16.58;76.39;91145.78;4946360;28;20030;-92
2021/09/05 08:38:31;;;;;;;12.85;8.45;;;;;;;16.77;75.44;91155.41;4946776;28;20049;-93
2021/09/05 08:40:56;;;;;;;13.77;8.77;;;;;;;16.86;75.68;91150.63;4957843;28;20027;-92
2021/09/05 08:43:24;;;;;;;11.40;7.65;;;;;;;16.97;73.35;91143.59;4944137;28;20034;-93
2021/09/05 08:45:52;;;;;;;13.30;7.85;;;;;;;17.02;69.58;91148.50;4962942;28;20033;-93
2021/09/05 08:48:18;;;;;;;13.55;7.90;;;;;;;17.26;70.08;91146.47;4963932;28;20026;-90
2021/09/05 08:50:44;;;;;;;13.68;8.02;;;;;;;17.14;68.24;91145.63;4972071;28;20053;-92
2021/09/05 08:53:10;;;;;;;12.85;7.28;;;;;;;17.22;67.35;91150.97;4964113;28;20049;-92
2021/09/05 08:55:36;;;;;;;12.00;8.07;;;;;;;17.09;64.99;91148.56;4948320;28;20053;-90
2021/09/05 08:58:08;;;;;;;12.25;7.82;;;;;;;17.20;70.61;91149.44;4948827;28;20026;-91
2021/09/05 09:00:42;;;;;;;11.95;7.18;;;;;;;17.28;68.08;91147.63;4946282;28;20045;-91
2021/09/05 09:03:13;;;;;;;13.75;7.47;;;;;;;17.50;68.25;91150.44;4962176;28;20056;-92
2021/09/05 09:05:40;;;;;;;13.38;7.90;;;;;;;17.57;66.50;91156.53;4946707;28;20030;-91
2021/09/05 09:08:10;;;;;;;12.18;7.70;;;;;;;17.60;66.26;91149.78;4947313;28;20054;-93
2021/09/05 09:11:01;;;;;;;12.98;8.18;;;;;;;17.77;70.36;91158.94;4979405;28;20034;-91
2021/09/05 09:13:40;;;;;;;12.13;7.75;;;;;;;17.89;66.99;91166.59;4947148;28;20030;-92
2021/09/05 09:16:10;;;;;;;12.45;7.70;;;;;;;18.09;63.55;91152.03;4947605;28;20022;-92
2021/09/05 09:18:37;;;;;;;16.65;8.30;;;;;;;18.17;67.76;91152.81;4962401;28;20033;-94
2021/09/05 09:21:04;;;;;;;12.25;7.60;;;;;;;18.35;64.79;91155.56;4962310;28;20034;-93
2021/09/05 09:23:32;;;;;;;13.07;7.88;;;;;;;18.60;64.80;91151.16;4953298;28;20517;-92
2021/09/05 09:26:07;;;;;;;11.30;7.00;;;;;;;18.64;62.15;91151.16;4927844;28;20089;-93
2021/09/05 09:28:46;;;;;;;10.85;6.53;;;;;;;18.81;63.53;91155.03;4945022;28;20027;-93
2021/09/05 09:31:23;;;;;;;10.80;6.45;;;;;;;19.02;63.33;91160.38;4929937;28;20051;-91
2021/09/05 09:33:55;;;;;;;12.20;6.72;;;;;;;19.19;58.93;91158.16;4948658;28;20040;-92
2021/09/05 09:36:22;;;;;;;12.57;6.80;;;;;;;19.32;62.60;91160.03;4964275;28;20025;-93
2021/09/05 09:38:54;;;;;;;11.27;7.22;;;;;;;19.42;57.71;91161.19;4947776;28;20050;-93
2021/09/05 09:41:19;;;;;;;9.90;6.57;;;;;;;19.65;57.21;91162.75;4963959;28;20041;-94
2021/09/05 09:43:52;;;;;;;10.20;6.53;;;;;;;19.75;55.50;91167.25;4959548;28;20113;-93
2021/09/05 09:46:20;;;;;;;10.80;6.57;;;;;;;19.78;58.96;91166.50;4943166;28;20086;-93
2021/09/05 09:48:47;;;;;;;10.35;6.57;;;;;;;19.98;61.58;91159.72;4958123;28;20030;-93
2021/09/05 09:51:13;;;;;;;9.60;6.38;;;;;;;20.14;58.69;91161.19;4946705;28;20034;-92
2021/09/05 09:53:40;;;;;;;9.80;6.90;;;;;;;20.35;60.84;91161.16;4961461;28;20026;-94
2021/09/05 09:56:06;;;;;;;12.15;6.20;;;;;;;20.41;50.49;91164.94;4946358;28;20030;-91
2021/09/05 09:58:32;;;;;;;9.88;5.45;;;;;;;20.33;50.72;91155.50;4945887;28;20037;-93
2021/09/05 10:00:57;;;;;;;9.25;5.45;;;;;;;20.51;55.46;91153.59;4946112;28;20034;-93
2021/09/05 10:03:23;;;;;;;9.45;6.32;;;;;;;20.84;61.06;91158.75;4946862;28;20026;-93
2021/09/05 10:05:49;;;;;;;12.60;7.15;;;;;;;20.97;55.77;91157.94;4946714;28;20120;-93
2021/09/05 10:08:14;;;;;;;8.23;6.22;;;;;;;20.98;57.94;91154.16;4946222;28;20041;-93
2021/09/05 10:10:40;;;;;;;10.25;6.63;;;;;;;21.24;59.25;91144.19;4946700;28;20034;-93
2021/09/05 10:13:06;;;;;;;10.50;6.88;;;;;;;21.34;55.22;91138.06;4962341;28;20134;-92
2021/09/05 10:15:38;;;;;;;12.07;6.97;;;;;;;21.23;55.35;91150.63;4963153;28;20034;-93
2021/09/05 10:18:10;;;;;;;15.80;7.38;;;;;;;21.27;56.22;91151.34;4948083;28;20113;-93
2021/09/05 10:20:38;;;;;;;12.55;7.28;;;;;;;21.39;55.86;91155.47;4963040;28;20113;-93
2021/09/05 10:23:37;;;;;;;10.48;7.20;;;;;;;21.38;56.37;91154.72;4950754;28;20058;-93
2021/09/05 10:26:12;;;;;;;10.18;7.45;;;;;;;21.18;57.39;91156.34;4977564;22;20022;-87
2021/09/05 10:28:43;;;;;;;11.45;7.50;;;;;;;21.08;59.21;91154.50;4961419;28;20039;-88
2021/09/05 10:31:25;;;;;;;10.50;7.20;;;;;;;21.06;57.38;91146.16;4963954;28;20030;-87
2021/09/05 10:33:57;;;;;;;10.45;7.55;;;;;;;20.91;56.11;91153.44;4959511;28;20023;-88
2021/09/05 10:36:33;;;;;;;13.95;7.75;;;;;;;20.96;58.21;91156.44;4954801;28;20030;-86
2021/09/05 10:39:14;;;;;;;12.13;6.90;;;;;;;21.16;58.93;91154.06;4938278;29;20027;-87
2021/09/05 10:41:56;;;;;;;8.75;6.55;;;;;;;21.02;58.01;91156.78;4941902;28;20030;-87
2021/09/05 10:44:35;;;;;;;10.85;7.43;;;;;;;20.85;56.96;91149.66;4942295;28;20031;-87
2021/09/05 10:47:13;;;;;;;10.63;7.13;;;;;;;20.69;57.58;91158.06;4940686;28;20032;-87
2021/09/05 10:49:49;;;;;;;11.82;7.45;;;;;;;20.39;57.44;91163.78;4939849;28;20027;-86
2021/09/05 10:52:52;;;;;;;13.52;7.55;;;;;;;19.91;57.37;91172.94;4927973;28;20031;-87
2021/09/05 10:55:21;;;;;;;11.13;7.22;;;;;;;19.71;57.43;91166.50;4934163;28;20046;-89
2021/09/05 10:58:02;;;;;;;12.45;7.15;;;;;;;19.63;57.38;91175.59;4959429;28;20023;-88
2021/09/05 11:00:31;;;;;;;12.68;7.25;;;;;;;19.43;59.00;91173.25;4942147;28;20026;-87
2021/09/05 11:03:11;;;;;;;10.15;6.90;;;;;;;19.54;61.23;91179.34;4935863;28;20038;-87
2021/09/05 11:05:38;;;;;;;14.68;7.35;;;;;;;19.54;62.89;91176.69;4923120;29;20019;-87
2021/09/05 11:08:25;;;;;;;15.63;7.68;;;;;;;19.39;62.64;91171.75;4940770;28;20018;-87
2021/09/05 11:10:55;;;;;;;17.48;7.78;;;;;;;19.36;66.84;91175.88;4943659;29;20035;-87
2021/09/05 11:13:45;;;;;;;12.60;7.63;;;;;;;19.06;68.34;91176.22;4937203;29;20038;-87
2021/09/05 11:16:17;;;;;;;13.80;7.40;;;;;;;18.94;69.38;91185.25;4932573;29;20039;-86
2021/09/05 11:18:52;;;;;;;14.13;8.27;;;;;;;19.09;72.21;91186.03;4954081;29;20553;-87
2021/09/05 11:21:30;;;;;;;;;;;;;;;19.14;70.71;91182.28;4923770;29;20027;-87
2021/09/05 11:24:04;;;;;;;11.68;7.75;;;;;;;19.43;66.68;91178.53;4947362;29;19911;-87
2021/09/05 11:26:35;;;;;;;;;;;;;;;19.65;69.28;91189.19;4947790;28;20111;-87
2021/09/05 11:29:28;;;;;;;15.98;7.97;;;;;;;19.95;65.81;91186.91;4960226;28;19914;-86
2021/09/05 11:32:12;;;;;;;12.60;7.80;;;;;;;20.42;66.66;91190.25;4974617;28;20027;-87
2021/09/05 11:34:52;;;;;;;12.23;8.15;;;;;;;20.83;66.98;91195.09;4972949;28;20019;-87
2021/09/05 11:37:37;;;;;;;12.98;7.85;;;;;;;21.24;64.88;91186.59;4908009;28;20031;-88
2021/09/05 11:40:07;;;;;;;13.32;7.65;;;;;;;21.34;62.52;91185.03;4941156;28;20047;-87
2021/09/05 11:42:38;;;;;;;13.40;7.28;;;;;;;21.43;61.27;91186.13;4924941;28;20034;-87
2021/09/05 11:45:09;;;;;;;11.55;7.40;;;;;;;21.67;60.37;91179.16;4940613;28;20395;-87
2021/09/05 11:47:36;;;;;;;9.77;7.05;;;;;;;21.65;56.92;91176.13;4924868;28;20022;-86
2021/09/05 11:50:05;;;;;;;12.35;6.95;;;;;;;21.83;54.21;91177.91;4922365;28;20463;-87
2021/09/05 11:52:37;;;;;;;10.38;7.10;;;;;;;22.17;57.78;91186.00;4937242;29;20023;-87
2021/09/05 11:55:10;;;;;;;13.85;7.47;;;;;;;22.15;56.86;91189.03;4922178;29;20038;-87
2021/09/05 11:58:00;;;;;;;10.93;6.97;;;;;;;22.32;57.54;91184.72;4936932;29;20054;-85
2021/09/05 12:00:41;;;;;;;14.18;6.72;;;;;;;22.06;56.60;91186.06;4939387;29;20027;-87